createdAt,value
2018-10-18T00:01:39.035Z,14.00
2018-10-18T00:07:01.070Z,13.83
2018-10-18T00:12:23.133Z,14.87
2018-10-18T00:17:47.315Z,16.27
2018-10-18T00:23:09.164Z,17.13
2018-10-18T00:28:31.125Z,13.83
2018-10-18T00:33:54.438Z,12.80
2018-10-18T00:39:16.658Z,13.77
2018-10-18T00:44:38.534Z,13.40
2018-10-18T00:50:00.736Z,13.40
2018-10-18T00:55:22.734Z,16.53
2018-10-18T01:00:45.184Z,14.47
2018-10-18T01:06:07.065Z,16.27
2018-10-18T01:11:29.107Z,13.77
2018-10-18T01:16:55.155Z,15.33
2018-10-18T01:22:16.982Z,14.27
2018-10-18T01:27:39.099Z,14.30
2018-10-18T01:33:00.844Z,14.53
2018-10-18T01:38:23.310Z,14.50
2018-10-18T01:43:45.129Z,14.53
2018-10-18T01:49:07.544Z,14.43
2018-10-18T01:54:29.399Z,15.23
2018-10-18T01:59:51.544Z,14.80
2018-10-18T02:05:13.439Z,13.50
2018-10-18T02:10:35.708Z,13.90
2018-10-18T02:15:57.807Z,14.67
2018-10-18T02:21:19.801Z,14.47
2018-10-18T02:26:41.553Z,15.77
2018-10-18T02:32:03.622Z,15.33
2018-10-18T02:37:25.516Z,16.67
2018-10-18T02:42:47.930Z,15.73
2018-10-18T02:48:10.308Z,16.47
2018-10-18T02:53:32.181Z,18.67
2018-10-18T02:58:53.822Z,20.20
2018-10-18T03:04:15.875Z,19.50
2018-10-18T03:09:37.930Z,21.00
2018-10-18T03:15:00.219Z,21.63
2018-10-18T03:20:23.161Z,24.33
2018-10-18T03:25:45.445Z,25.23
2018-10-18T03:31:07.371Z,27.53
2018-10-18T03:36:29.530Z,29.07
2018-10-18T03:41:51.498Z,28.13
2018-10-18T03:47:13.850Z,28.57
2018-10-18T03:52:35.711Z,29.37
2018-10-18T03:57:58.242Z,30.30
2018-10-18T04:03:20.571Z,38.63
2018-10-18T04:08:43.133Z,38.73
2018-10-18T04:14:05.566Z,31.00
2018-10-18T04:19:29.062Z,33.40
2018-10-18T04:24:51.173Z,33.07
2018-10-18T04:30:13.343Z,28.03
2018-10-18T04:35:35.270Z,30.73
2018-10-18T04:40:57.630Z,30.40
2018-10-18T04:46:19.423Z,33.20
2018-10-18T04:51:42.631Z,29.37
2018-10-18T04:57:04.842Z,28.03
2018-10-18T05:02:26.585Z,29.70
2018-10-18T05:07:48.629Z,29.73
2018-10-18T05:13:10.474Z,28.63
2018-10-18T05:18:32.486Z,26.00
2018-10-18T05:23:54.581Z,26.07
2018-10-18T05:29:16.742Z,24.97
2018-10-18T05:34:38.490Z,22.67
2018-10-18T05:40:00.715Z,21.50
2018-10-18T05:45:22.683Z,22.77
2018-10-18T05:50:44.946Z,22.47
2018-10-18T05:56:06.915Z,22.17
2018-10-18T06:01:28.920Z,20.07
2018-10-18T06:06:50.657Z,18.87
2018-10-18T06:12:12.818Z,19.03
2018-10-18T06:17:34.654Z,18.80
2018-10-18T06:22:56.935Z,18.07
2018-10-18T06:28:19.201Z,18.20
2018-10-18T06:33:41.274Z,20.37
2018-10-18T06:39:03.830Z,19.30
2018-10-18T06:44:25.740Z,22.63
2018-10-18T06:49:48.299Z,16.80
2018-10-18T06:55:10.793Z,17.87
2018-10-18T07:00:33.092Z,16.90
2018-10-18T07:05:55.048Z,17.40
2018-10-18T07:11:17.721Z,16.23
2018-10-18T07:16:40.122Z,15.90
2018-10-18T07:22:02.035Z,15.57
2018-10-18T07:27:23.830Z,16.10
2018-10-18T07:32:46.114Z,15.97
2018-10-18T07:38:09.185Z,16.63
2018-10-18T07:43:30.990Z,16.17
2018-10-18T07:48:53.110Z,17.43
2018-10-18T07:54:14.948Z,17.47
2018-10-18T07:59:37.178Z,16.77
2018-10-18T08:04:59.074Z,15.20
2018-10-18T08:10:21.228Z,14.70
2018-10-18T08:15:44.301Z,14.03
2018-10-18T08:21:06.480Z,14.27
2018-10-18T08:26:29.687Z,14.27
2018-10-18T08:31:51.464Z,14.77
2018-10-18T08:37:14.612Z,13.57
2018-10-18T08:42:37.373Z,14.93
2018-10-18T08:47:59.534Z,16.77
2018-10-18T08:53:21.861Z,14.77
2018-10-18T08:58:43.741Z,16.47
2018-10-18T09:04:05.977Z,16.00
2018-10-18T09:09:28.055Z,15.07
2018-10-18T09:14:49.964Z,15.07
2018-10-18T09:20:11.777Z,16.93
2018-10-18T09:25:33.878Z,14.13
2018-10-18T09:30:55.608Z,14.07
2018-10-18T09:36:17.742Z,15.23
2018-10-18T09:41:39.826Z,13.93
2018-10-18T09:47:02.558Z,15.33
2018-10-18T09:52:25.221Z,15.77
2018-10-18T09:57:48.280Z,15.13
2018-10-18T10:03:14.487Z,15.77
2018-10-18T10:08:40.478Z,12.10
2018-10-18T10:14:04.073Z,14.10
2018-10-18T10:19:26.182Z,13.53
2018-10-18T10:24:48.050Z,10.90
2018-10-18T10:30:10.561Z,10.43
2018-10-18T10:35:32.848Z,10.83
2018-10-18T10:40:54.911Z,8.47
2018-10-18T10:46:17.245Z,8.57
2018-10-18T10:51:39.421Z,9.20
2018-10-18T10:57:01.295Z,7.47
2018-10-18T11:02:23.390Z,7.53
2018-10-18T11:07:45.462Z,6.27
2018-10-18T11:13:07.512Z,6.33
2018-10-18T11:18:29.322Z,6.10
2018-10-18T11:23:51.373Z,5.53
2018-10-18T11:29:13.247Z,5.13
2018-10-18T11:34:35.608Z,5.30
2018-10-18T11:39:57.402Z,4.03
2018-10-18T11:45:19.524Z,5.30
2018-10-18T11:50:41.810Z,5.23
2018-10-18T11:56:04.215Z,5.73
2018-10-18T12:01:26.589Z,4.60
2018-10-18T12:06:49.015Z,5.10
2018-10-18T12:12:10.894Z,4.00
2018-10-18T12:17:33.085Z,5.77
2018-10-18T12:22:56.211Z,5.70
2018-10-18T12:28:17.998Z,3.60
2018-10-18T12:33:40.002Z,5.97
2018-10-18T12:39:01.880Z,5.53
2018-10-18T12:44:24.043Z,3.33
2018-10-18T12:49:45.709Z,6.20
2018-10-18T12:55:07.804Z,6.33
2018-10-18T13:00:29.579Z,3.50
2018-10-18T13:05:51.779Z,3.97
2018-10-18T13:11:13.943Z,3.40
2018-10-18T13:16:35.970Z,3.03
2018-10-18T13:21:57.754Z,3.93
2018-10-18T13:27:19.993Z,4.17
2018-10-18T13:32:42.145Z,4.33
2018-10-18T13:38:04.185Z,3.13
2018-10-18T13:43:26.052Z,3.17
2018-10-18T13:48:48.078Z,4.10
2018-10-18T13:54:10.024Z,3.47
2018-10-18T13:59:43.567Z,2.17
2018-10-18T14:05:05.604Z,1.87
2018-10-18T14:10:27.356Z,3.93
2018-10-18T14:15:49.682Z,3.13
2018-10-18T14:21:11.666Z,3.10
2018-10-18T14:26:33.949Z,3.20
2018-10-18T14:31:56.020Z,2.17
2018-10-18T14:37:19.404Z,3.07
2018-10-18T14:42:41.265Z,1.60
2018-10-18T14:48:03.390Z,2.63
2018-10-18T14:53:25.274Z,2.67
2018-10-18T14:58:47.539Z,2.37
2018-10-18T15:04:10.420Z,2.37
2018-10-18T15:09:32.796Z,3.20
2018-10-18T15:14:55.539Z,3.30
2018-10-18T15:20:17.819Z,2.47
2018-10-18T15:25:39.983Z,2.80
2018-10-18T15:31:01.954Z,2.50
2018-10-18T15:36:24.394Z,2.53
2018-10-18T15:41:47.643Z,2.40
2018-10-18T15:47:10.019Z,3.93
2018-10-18T15:52:31.793Z,3.03
2018-10-18T15:57:53.727Z,3.57
2018-10-18T16:03:15.795Z,4.80
2018-10-18T16:08:37.826Z,2.03
2018-10-18T16:14:00.006Z,2.57
2018-10-18T16:19:22.050Z,2.97
2018-10-18T16:24:43.890Z,2.80
2018-10-18T16:30:06.422Z,3.50
2018-10-18T16:35:28.638Z,3.17
2018-10-18T16:40:50.965Z,4.60
2018-10-18T16:46:12.689Z,3.30
2018-10-18T16:51:34.848Z,2.50
2018-10-18T16:56:56.702Z,3.50
2018-10-18T17:02:18.855Z,3.80
2018-10-18T17:07:40.751Z,4.13
2018-10-18T17:13:04.232Z,3.87
2018-10-18T17:18:26.247Z,5.80
2018-10-18T17:23:48.369Z,5.50
2018-10-18T17:29:10.851Z,5.33
2018-10-18T17:34:32.739Z,5.90
2018-10-18T17:39:54.949Z,4.17
2018-10-18T17:45:17.979Z,5.27
2018-10-18T17:50:40.099Z,5.27
2018-10-18T17:56:02.093Z,4.37
2018-10-18T18:01:24.326Z,4.67
2018-10-18T18:06:46.239Z,4.13
2018-10-18T18:12:09.161Z,4.67
2018-10-18T18:17:31.406Z,4.33
2018-10-18T18:22:53.608Z,5.40
2018-10-18T18:28:16.016Z,7.90
2018-10-18T18:33:38.059Z,4.93
2018-10-18T18:39:00.520Z,6.70
2018-10-18T18:44:22.438Z,6.20
2018-10-18T18:49:44.666Z,7.07
2018-10-18T18:55:07.002Z,4.10
2018-10-18T19:00:28.960Z,7.60
2018-10-18T19:05:50.678Z,6.47
2018-10-18T19:11:12.823Z,3.83
2018-10-18T19:16:34.563Z,5.50
2018-10-18T19:21:57.092Z,6.53
2018-10-18T19:27:19.350Z,4.20
2018-10-18T19:32:41.338Z,8.17
2018-10-18T19:38:03.577Z,4.93
2018-10-18T19:43:25.417Z,6.40
2018-10-18T19:48:47.514Z,6.10
2018-10-18T19:54:09.980Z,8.00
2018-10-18T19:59:32.235Z,6.40
2018-10-18T20:04:54.472Z,6.00
2018-10-18T20:10:16.291Z,6.43
2018-10-18T20:15:39.312Z,7.10
2018-10-18T20:21:01.540Z,7.10
2018-10-18T20:26:23.677Z,6.57
2018-10-18T20:31:45.561Z,5.93
2018-10-18T20:37:07.551Z,7.03
2018-10-18T20:42:29.667Z,6.57
2018-10-18T20:47:51.494Z,8.97
2018-10-18T20:53:13.594Z,7.03
2018-10-18T20:58:35.658Z,7.37
2018-10-18T21:03:57.514Z,6.20
2018-10-18T21:09:19.958Z,5.63
2018-10-18T21:14:41.915Z,6.97
2018-10-18T21:20:03.514Z,9.80
2018-10-18T21:25:25.559Z,4.47
2018-10-18T21:30:47.629Z,4.20
2018-10-18T21:36:09.790Z,6.47
2018-10-18T21:41:31.617Z,4.40
2018-10-18T21:46:54.134Z,7.67
2018-10-18T21:52:15.978Z,6.73
2018-10-18T21:57:38.030Z,5.97
2018-10-18T22:02:59.891Z,7.07
2018-10-18T22:08:21.866Z,4.40
2018-10-18T22:13:43.766Z,6.97
2018-10-18T22:19:06.490Z,8.90
2018-10-18T22:24:28.707Z,6.57
2018-10-18T22:29:50.611Z,4.80
2018-10-18T22:35:13.301Z,4.53
2018-10-18T22:40:35.586Z,5.40
2018-10-18T22:46:00.757Z,5.00
2018-10-18T22:51:22.931Z,5.60
2018-10-18T22:56:44.774Z,4.90
2018-10-18T23:02:06.423Z,5.47
2018-10-18T23:07:28.933Z,6.30
2018-10-18T23:12:50.672Z,6.87
2018-10-18T23:18:12.731Z,8.00
2018-10-18T23:23:34.665Z,6.10
2018-10-18T23:28:56.759Z,7.10
2018-10-18T23:34:18.687Z,7.43
2018-10-18T23:39:40.974Z,7.47
2018-10-18T23:45:03.563Z,8.43
2018-10-18T23:50:25.627Z,8.60
2018-10-18T23:55:47.947Z,9.03
